Terminal Aerodrome Forecast
Issued by NWS Twin Cities, MN

Home | Current Version | Previous Version | Text Only | Print | Product List | Glossary On
Versions: 1 2 3 4 5 6 7 8 9 10 11 12 13
000
FTUS43 KMPX 290520
TAFEAU
TAF
KEAU 290520Z 2906/3006 VRB04KT P6SM BKN250
     FM291500 05010KT P6SM BKN150
     FM292200 06010KT P6SM OVC100=

USA.gov is the U.S. government's official web portal to all federal, state and local government web resources and services.